Wetterstation Vordersexau
Wetterdaten: Woche 25.09.23 - 01.10.23 (KW39)
Datum Zeit Temp. A. Feuchte A. Luftdruck Regen Wind Richtung Taupunkt Windchill Windben
25.09.2023 00:00 10,5 C 87 % 1018,7 hPa 0,0 l/m 0,0 km/h (0 Bft) O-SO 8,4 C 10,5 C 2,5 km/h (1 Bft)
25.09.2023 01:00 9,2 C 91 % 1018,4 hPa 0,0 l/m 1,1 km/h (1 Bft) NO 7,8 C 9,2 C 2,5 km/h (1 Bft)
25.09.2023 02:00 9,6 C 90 % 1018,3 hPa 0,0 l/m 2,5 km/h (1 Bft) NO 8,0 C 9,6 C 3,6 km/h (1 Bft)
25.09.2023 03:00 9,5 C 89 % 1018,1 hPa 0,0 l/m 1,1 km/h (1 Bft) NO 7,8 C 9,5 C 2,5 km/h (1 Bft)
25.09.2023 04:00 8,5 C 92 % 1018,0 hPa 0,0 l/m 1,1 km/h (1 Bft) O-SO 7,3 C 8,5 C 2,5 km/h (1 Bft)
25.09.2023 05:00 8,5 C 90 % 1017,5 hPa 0,0 l/m 1,1 km/h (1 Bft) N 7,0 C 8,5 C 3,6 km/h (1 Bft)
25.09.2023 06:00 7,6 C 92 % 1017,8 hPa 0,0 l/m 0,0 km/h (0 Bft) O 6,4 C 7,6 C 0,0 km/h (0 Bft)
25.09.2023 07:00 7,0 C 94 % 1018,2 hPa 0,0 l/m 1,1 km/h (1 Bft) N 6,1 C 7,0 C 2,5 km/h (1 Bft)
25.09.2023 08:00 6,6 C 96 % 1018,4 hPa 0,0 l/m 0,0 km/h (0 Bft) N 6,0 C 6,6 C 0,0 km/h (0 Bft)
25.09.2023 09:00 7,1 C 97 % 1018,6 hPa 0,0 l/m 0,0 km/h (0 Bft) SO 6,7 C 7,1 C 0,0 km/h (0 Bft)
25.09.2023 10:00 11,9 C 80 % 1018,3 hPa 0,0 l/m 3,6 km/h (1 Bft) N 8,6 C 11,9 C 6,1 km/h (2 Bft)
25.09.2023 11:00 14,3 C 73 % 1019,0 hPa 0,0 l/m 2,5 km/h (1 Bft) N 9,5 C 14,3 C 3,6 km/h (1 Bft)
25.09.2023 12:00 16,7 C 69 % 1018,8 hPa 0,0 l/m 0,0 km/h (0 Bft) N-NO 11,0 C 16,7 C 0,0 km/h (0 Bft)
25.09.2023 13:00 18,3 C 61 % 1018,2 hPa 0,0 l/m 2,5 km/h (1 Bft) SW 10,6 C 18,3 C 3,6 km/h (1 Bft)
25.09.2023 14:00 20,1 C 60 % 1018,1 hPa 0,0 l/m 2,5 km/h (1 Bft) S-SO 12,1 C 20,1 C 6,1 km/h (2 Bft)
25.09.2023 15:00 20,9 C 53 % 1017,8 hPa 0,0 l/m 2,5 km/h (1 Bft) W 11,0 C 20,9 C 3,6 km/h (1 Bft)
25.09.2023 16:00 21,9 C 58 % 1017,5 hPa 0,0 l/m 2,5 km/h (1 Bft) N-NW 13,3 C 21,9 C 6,1 km/h (2 Bft)
25.09.2023 17:00 23,0 C 55 % 1017,4 hPa 0,0 l/m 2,5 km/h (1 Bft) W 13,5 C 23,0 C 3,6 km/h (1 Bft)
25.09.2023 18:00 22,5 C 55 % 1017,4 hPa 0,0 l/m 2,5 km/h (1 Bft) W 13,0 C 22,5 C 3,6 km/h (1 Bft)
25.09.2023 19:00 21,6 C 57 % 1017,3 hPa 0,0 l/m 2,5 km/h (1 Bft) W-NW 12,7 C 21,6 C 3,6 km/h (1 Bft)
25.09.2023 20:00 17,1 C 74 % 1017,6 hPa 0,0 l/m 1,1 km/h (1 Bft) N 12,4 C 17,1 C 2,5 km/h (1 Bft)
25.09.2023 21:00 14,2 C 84 % 1018,0 hPa 0,0 l/m 0,0 km/h (0 Bft) N 11,5 C 14,2 C 0,0 km/h (0 Bft)
25.09.2023 22:00 13,3 C 88 % 1018,1 hPa 0,0 l/m 0,0 km/h (0 Bft) N 11,4 C 13,3 C 0,0 km/h (0 Bft)
25.09.2023 23:00 12,5 C 93 % 1018,0 hPa 0,0 l/m 0,0 km/h (0 Bft) O-SO 11,4 C 12,5 C 2,5 km/h (1 Bft)
26.09.2023 00:00 12,0 C 93 % 1018,1 hPa 0,0 l/m 1,1 km/h (1 Bft) O-SO 10,9 C 12,0 C 2,5 km/h (1 Bft)
26.09.2023 01:00 10,9 C 95 % 1018,0 hPa 0,0 l/m 1,1 km/h (1 Bft) N 10,1 C 10,9 C 2,5 km/h (1 Bft)
26.09.2023 02:00 11,0 C 96 % 1018,0 hPa 0,0 l/m 0,0 km/h (0 Bft) N 10,4 C 11,0 C 2,5 km/h (1 Bft)
26.09.2023 03:00 10,2 C 97 % 1017,9 hPa 0,0 l/m 0,0 km/h (0 Bft) N 9,7 C 10,2 C 0,0 km/h (0 Bft)
26.09.2023 04:00 10,2 C 97 % 1017,8 hPa 0,0 l/m 0,0 km/h (0 Bft) N 9,7 C 10,2 C 0,0 km/h (0 Bft)
26.09.2023 05:00 9,9 C 97 % 1017,5 hPa 0,0 l/m 0,0 km/h (0 Bft) O-NO 9,4 C 9,9 C 0,0 km/h (0 Bft)
26.09.2023 06:00 8,8 C 98 % 1017,3 hPa 0,0 l/m 1,1 km/h (1 Bft) O-NO 8,5 C 8,8 C 2,5 km/h (1 Bft)
26.09.2023 07:00 8,8 C 98 % 1017,3 hPa 0,0 l/m 1,1 km/h (1 Bft) N 8,5 C 8,8 C 2,5 km/h (1 Bft)
26.09.2023 08:00 7,7 C 98 % 1017,2 hPa 0,0 l/m 0,0 km/h (0 Bft) N 7,4 C 7,7 C 0,0 km/h (0 Bft)
26.09.2023 09:00 9,1 C 99 % 1017,4 hPa 0,0 l/m 0,0 km/h (0 Bft) N 9,0 C 9,1 C 0,0 km/h (0 Bft)
26.09.2023 10:00 13,9 C 86 % 1017,7 hPa 0,0 l/m 0,0 km/h (0 Bft) W-NW 11,6 C 13,9 C 0,0 km/h (0 Bft)
26.09.2023 11:00 15,1 C 83 % 1017,7 hPa 0,0 l/m 1,1 km/h (1 Bft) W-SW 12,2 C 15,1 C 2,5 km/h (1 Bft)
26.09.2023 12:00 18,0 C 76 % 1017,3 hPa 0,0 l/m 2,5 km/h (1 Bft) N-NO 13,7 C 18,0 C 3,6 km/h (1 Bft)
26.09.2023 13:00 20,6 C 67 % 1016,7 hPa 0,0 l/m 1,1 km/h (1 Bft) W-NW 14,3 C 20,6 C 2,5 km/h (1 Bft)
26.09.2023 14:00 22,2 C 59 % 1016,4 hPa 0,0 l/m 1,1 km/h (1 Bft) W-NW 13,8 C 22,2 C 6,1 km/h (2 Bft)
26.09.2023 15:00 23,5 C 56 % 1015,9 hPa 0,0 l/m 2,5 km/h (1 Bft) W-SW 14,2 C 23,5 C 3,6 km/h (1 Bft)
26.09.2023 16:00 23,9 C 55 % 1015,7 hPa 0,0 l/m 3,6 km/h (1 Bft) W 14,3 C 23,9 C 6,1 km/h (2 Bft)
26.09.2023 17:00 24,3 C 55 % 1015,4 hPa 0,0 l/m 1,1 km/h (1 Bft) NW 14,7 C 24,3 C 2,5 km/h (1 Bft)
26.09.2023 18:00 24,7 C 53 % 1015,3 hPa 0,0 l/m 2,5 km/h (1 Bft) W 14,5 C 24,7 C 3,6 km/h (1 Bft)
26.09.2023 19:00 24,0 C 50 % 1015,4 hPa 0,0 l/m 1,1 km/h (1 Bft) N 12,9 C 24,0 C 2,5 km/h (1 Bft)
26.09.2023 20:00 18,1 C 77 % 1015,9 hPa 0,0 l/m 0,0 km/h (0 Bft) O-SO 14,0 C 18,1 C 2,5 km/h (1 Bft)
26.09.2023 21:00 15,1 C 87 % 1016,3 hPa 0,0 l/m 1,1 km/h (1 Bft) O 13,0 C 15,1 C 2,5 km/h (1 Bft)
26.09.2023 22:00 13,8 C 90 % 1016,9 hPa 0,0 l/m 1,1 km/h (1 Bft) N 12,2 C 13,8 C 2,5 km/h (1 Bft)
26.09.2023 23:00 13,0 C 90 % 1016,8 hPa 0,0 l/m 0,0 km/h (0 Bft) SO 11,4 C 13,0 C 3,6 km/h (1 Bft)
27.09.2023 00:00 12,4 C 89 % 1016,8 hPa 0,0 l/m 1,1 km/h (1 Bft) SO 10,6 C 12,4 C 3,6 km/h (1 Bft)
27.09.2023 01:00 11,9 C 90 % 1016,7 hPa 0,0 l/m 0,0 km/h (0 Bft) SO 10,3 C 11,9 C 2,5 km/h (1 Bft)
27.09.2023 02:00 11,6 C 88 % 1016,4 hPa 0,0 l/m 1,1 km/h (1 Bft) O-SO 9,7 C 11,6 C 3,6 km/h (1 Bft)
27.09.2023 03:00 10,9 C 88 % 1016,6 hPa 0,0 l/m 1,1 km/h (1 Bft) O-NO 9,0 C 10,9 C 2,5 km/h (1 Bft)
27.09.2023 04:00 10,8 C 88 % 1016,7 hPa 0,0 l/m 1,1 km/h (1 Bft) O 8,9 C 10,8 C 2,5 km/h (1 Bft)
27.09.2023 05:00 10,3 C 89 % 1016,7 hPa 0,0 l/m 1,1 km/h (1 Bft) O-SO 8,6 C 10,3 C 3,6 km/h (1 Bft)
27.09.2023 06:00 10,0 C 90 % 1016,4 hPa 0,0 l/m 1,1 km/h (1 Bft) O-NO 8,4 C 10,0 C 2,5 km/h (1 Bft)
27.09.2023 07:00 9,3 C 92 % 1016,8 hPa 0,0 l/m 1,1 km/h (1 Bft) O 8,1 C 9,3 C 2,5 km/h (1 Bft)
27.09.2023 08:00 8,3 C 94 % 1017,0 hPa 0,0 l/m 1,1 km/h (1 Bft) N 7,4 C 8,3 C 2,5 km/h (1 Bft)
27.09.2023 09:00 9,2 C 94 % 1017,1 hPa 0,0 l/m 0,0 km/h (0 Bft) N 8,3 C 9,2 C 0,0 km/h (0 Bft)
27.09.2023 10:00 14,8 C 79 % 1016,8 hPa 0,0 l/m 0,0 km/h (0 Bft) NO 11,2 C 14,8 C 2,5 km/h (1 Bft)
27.09.2023 11:00 16,7 C 75 % 1016,5 hPa 0,0 l/m 1,1 km/h (1 Bft) W-NW 12,2 C 16,7 C 2,5 km/h (1 Bft)
27.09.2023 12:00 19,5 C 64 % 1016,0 hPa 0,0 l/m 5,0 km/h (1 Bft) NW 12,5 C 19,5 C 6,1 km/h (2 Bft)
27.09.2023 13:00 21,6 C 62 % 1015,7 hPa 0,0 l/m 1,1 km/h (1 Bft) W 14,0 C 21,6 C 2,5 km/h (1 Bft)
27.09.2023 14:00 22,3 C 60 % 1015,0 hPa 0,0 l/m 3,6 km/h (1 Bft) W-NW 14,2 C 22,3 C 6,1 km/h (2 Bft)
27.09.2023 15:00 24,2 C 55 % 1013,7 hPa 0,0 l/m 1,1 km/h (1 Bft) NW 14,6 C 24,2 C 3,6 km/h (1 Bft)
27.09.2023 16:00 25,6 C 50 % 1013,3 hPa 0,0 l/m 2,5 km/h (1 Bft) S-SW 14,4 C 25,6 C 3,6 km/h (1 Bft)
27.09.2023 17:00 26,0 C 47 % 1012,8 hPa 0,0 l/m 1,1 km/h (1 Bft) N-NW 13,8 C 26,0 C 2,5 km/h (1 Bft)
27.09.2023 18:00 24,8 C 55 % 1012,5 hPa 0,0 l/m 2,5 km/h (1 Bft) N-NW 15,1 C 24,8 C 3,6 km/h (1 Bft)
27.09.2023 19:00 23,4 C 60 % 1012,8 hPa 0,0 l/m 1,1 km/h (1 Bft) N 15,2 C 23,4 C 2,5 km/h (1 Bft)
27.09.2023 20:00 19,0 C 77 % 1013,1 hPa 0,0 l/m 0,0 km/h (0 Bft) N-NW 14,9 C 19,0 C 2,5 km/h (1 Bft)
27.09.2023 21:00 16,9 C 84 % 1013,0 hPa 0,0 l/m 1,1 km/h (1 Bft) N-NW 14,2 C 16,9 C 2,5 km/h (1 Bft)
27.09.2023 22:00 14,9 C 89 % 1013,6 hPa 0,0 l/m 1,1 km/h (1 Bft) N 13,1 C 14,9 C 2,5 km/h (1 Bft)
27.09.2023 23:00 14,9 C 90 % 1013,6 hPa 0,0 l/m 0,0 km/h (0 Bft) N 13,3 C 14,9 C 2,5 km/h (1 Bft)
28.09.2023 00:00 14,3 C 91 % 1013,8 hPa 0,0 l/m 0,0 km/h (0 Bft) N 12,8 C 14,3 C 0,0 km/h (0 Bft)
28.09.2023 01:00 13,4 C 94 % 1013,3 hPa 0,0 l/m 0,0 km/h (0 Bft) N 12,5 C 13,4 C 0,0 km/h (0 Bft)
28.09.2023 02:00 12,8 C 94 % 1013,3 hPa 0,0 l/m 0,0 km/h (0 Bft) N 11,9 C 12,8 C 0,0 km/h (0 Bft)
28.09.2023 03:00 13,8 C 91 % 1013,4 hPa 0,0 l/m 0,0 km/h (0 Bft) N 12,4 C 13,8 C 2,5 km/h (1 Bft)
28.09.2023 04:00 13,1 C 93 % 1013,3 hPa 0,0 l/m 0,0 km/h (0 Bft) N 12,0 C 13,1 C 0,0 km/h (0 Bft)
28.09.2023 05:00 13,2 C 94 % 1013,5 hPa 0,0 l/m 0,0 km/h (0 Bft) N 12,3 C 13,2 C 0,0 km/h (0 Bft)
28.09.2023 06:00 13,0 C 93 % 1013,7 hPa 0,0 l/m 0,0 km/h (0 Bft) O 11,9 C 13,0 C 0,0 km/h (0 Bft)
28.09.2023 07:00 12,4 C 93 % 1013,6 hPa 0,0 l/m 1,1 km/h (1 Bft) N 11,3 C 12,4 C 2,5 km/h (1 Bft)
28.09.2023 08:00 12,6 C 90 % 1014,2 hPa 0,0 l/m 0,0 km/h (0 Bft) N 11,0 C 12,6 C 0,0 km/h (0 Bft)
28.09.2023 09:00 13,5 C 88 % 1014,6 hPa 0,0 l/m 0,0 km/h (0 Bft) O-SO 11,6 C 13,5 C 0,0 km/h (0 Bft)
28.09.2023 10:00 16,9 C 80 % 1014,7 hPa 0,0 l/m 1,1 km/h (1 Bft) SO 13,4 C 16,9 C 2,5 km/h (1 Bft)
28.09.2023 11:00 21,3 C 68 % 1014,6 hPa 0,0 l/m 3,6 km/h (1 Bft) W 15,1 C 21,3 C 6,1 km/h (2 Bft)
28.09.2023 12:00 23,9 C 55 % 1014,8 hPa 0,0 l/m 1,1 km/h (1 Bft) W 14,3 C 23,9 C 2,5 km/h (1 Bft)
28.09.2023 13:00 24,9 C 56 % 1014,6 hPa 0,0 l/m 3,6 km/h (1 Bft) W 15,5 C 24,9 C 6,1 km/h (2 Bft)
28.09.2023 14:00 25,5 C 49 % 1014,5 hPa 0,0 l/m 5,0 km/h (1 Bft) W-SW 14,0 C 25,5 C 7,2 km/h (2 Bft)
28.09.2023 15:00 25,7 C 51 % 1014,0 hPa 0,0 l/m 3,6 km/h (1 Bft) N 14,8 C 25,7 C 6,1 km/h (2 Bft)
28.09.2023 16:00 27,2 C 45 % 1013,4 hPa 0,0 l/m 0,0 km/h (0 Bft) N 14,2 C 27,2 C 0,0 km/h (0 Bft)
28.09.2023 17:00 28,3 C 44 % 1013,2 hPa 0,0 l/m 0,0 km/h (0 Bft) N-NO 14,9 C 28,3 C 2,5 km/h (1 Bft)
28.09.2023 18:00 27,1 C 48 % 1012,8 hPa 0,0 l/m 2,5 km/h (1 Bft) N 15,1 C 27,1 C 3,6 km/h (1 Bft)
28.09.2023 19:00 25,2 C 60 % 1012,9 hPa 0,0 l/m 0,0 km/h (0 Bft) O 16,9 C 25,2 C 0,0 km/h (0 Bft)
28.09.2023 20:00 20,5 C 74 % 1013,0 hPa 0,0 l/m 2,5 km/h (1 Bft) N 15,7 C 20,5 C 3,6 km/h (1 Bft)
28.09.2023 21:00 18,1 C 84 % 1013,7 hPa 0,0 l/m 0,0 km/h (0 Bft) N 15,4 C 18,1 C 2,5 km/h (1 Bft)
28.09.2023 22:00 17,6 C 85 % 1014,0 hPa 0,0 l/m 0,0 km/h (0 Bft) N 15,0 C 17,6 C 2,5 km/h (1 Bft)
28.09.2023 23:00 16,8 C 86 % 1014,3 hPa 0,0 l/m 0,0 km/h (0 Bft) N 14,4 C 16,8 C 2,5 km/h (1 Bft)
29.09.2023 00:00 16,0 C 88 % 1014,5 hPa 0,0 l/m 0,0 km/h (0 Bft) O 14,0 C 16,0 C 0,0 km/h (0 Bft)
29.09.2023 01:00 15,6 C 88 % 1014,6 hPa 0,0 l/m 1,1 km/h (1 Bft) N 13,6 C 15,6 C 3,6 km/h (1 Bft)
29.09.2023 02:00 14,7 C 90 % 1014,7 hPa 0,0 l/m 0,0 km/h (0 Bft) N 13,1 C 14,7 C 0,0 km/h (0 Bft)
29.09.2023 03:00 14,4 C 90 % 1014,6 hPa 0,0 l/m 0,0 km/h (0 Bft) O 12,8 C 14,4 C 2,5 km/h (1 Bft)
29.09.2023 04:00 14,2 C 90 % 1014,3 hPa 0,0 l/m 3,6 km/h (1 Bft) N 12,6 C 14,2 C 3,6 km/h (1 Bft)
29.09.2023 05:00 13,9 C 90 % 1014,1 hPa 0,0 l/m 0,0 km/h (0 Bft) N 12,3 C 13,9 C 0,0 km/h (0 Bft)
29.09.2023 06:00 13,7 C 91 % 1014,3 hPa 0,0 l/m 0,0 km/h (0 Bft) N 12,3 C 13,7 C 0,0 km/h (0 Bft)
29.09.2023 07:00 12,9 C 92 % 1014,6 hPa 0,0 l/m 0,0 km/h (0 Bft) O 11,6 C 12,9 C 0,0 km/h (0 Bft)
29.09.2023 08:00 12,4 C 96 % 1015,0 hPa 0,0 l/m 1,1 km/h (1 Bft) N 11,8 C 12,4 C 2,5 km/h (1 Bft)
29.09.2023 09:00 13,2 C 95 % 1015,2 hPa 0,0 l/m 0,0 km/h (0 Bft) O 12,4 C 13,2 C 0,0 km/h (0 Bft)
29.09.2023 10:00 17,0 C 85 % 1015,5 hPa 0,0 l/m 2,5 km/h (1 Bft) W-SW 14,5 C 17,0 C 3,6 km/h (1 Bft)
29.09.2023 11:00 24,3 C 60 % 1015,5 hPa 0,0 l/m 8,6 km/h (2 Bft) W-SW 16,0 C 23,7 C 11,2 km/h (2 Bft)
29.09.2023 12:00 25,1 C 56 % 1015,6 hPa 0,0 l/m 9,7 km/h (2 Bft) S 15,7 C 24,3 C 14,8 km/h (3 Bft)
29.09.2023 13:00 25,7 C 58 % 1015,9 hPa 0,0 l/m 6,1 km/h (2 Bft) S 16,8 C 25,7 C 9,7 km/h (2 Bft)
29.09.2023 14:00 26,0 C 60 % 1015,7 hPa 0,0 l/m 11,2 km/h (2 Bft) W-SW 17,6 C 25,1 C 14,8 km/h (3 Bft)
29.09.2023 15:00 27,2 C 56 % 1015,3 hPa 0,0 l/m 8,6 km/h (2 Bft) W 17,6 C 26,8 C 14,8 km/h (3 Bft)
29.09.2023 16:00 26,0 C 58 % 1015,3 hPa 0,0 l/m 15,8 km/h (3 Bft) W 17,1 C 24,4 C 22,0 km/h (4 Bft)
29.09.2023 17:00 26,5 C 54 % 1015,7 hPa 0,0 l/m 13,3 km/h (3 Bft) W 16,4 C 25,3 C 17,3 km/h (3 Bft)
29.09.2023 18:00 25,3 C 55 % 1016,3 hPa 0,0 l/m 6,1 km/h (2 Bft) NW 15,6 C 25,3 C 11,2 km/h (2 Bft)
29.09.2023 19:00 22,8 C 65 % 1017,3 hPa 0,0 l/m 2,5 km/h (1 Bft) W-NW 15,9 C 22,8 C 3,6 km/h (1 Bft)
29.09.2023 20:00 21,2 C 67 % 1018,4 hPa 0,0 l/m 1,1 km/h (1 Bft) N 14,8 C 21,2 C 3,6 km/h (1 Bft)
29.09.2023 21:00 18,6 C 76 % 1018,9 hPa 0,0 l/m 0,0 km/h (0 Bft) W 14,3 C 18,6 C 0,0 km/h (0 Bft)
29.09.2023 22:00 18,6 C 75 % 1006,9 hPa 0,0 l/m 2,5 km/h (1 Bft) N 14,1 C 18,6 C 6,1 km/h (2 Bft)
29.09.2023 23:00 17,4 C 82 % 1020,0 hPa 0,0 l/m 0,0 km/h (0 Bft) N 14,3 C 17,4 C 0,0 km/h (0 Bft)
30.09.2023 00:00 16,2 C 85 % 1020,3 hPa 0,0 l/m 0,0 km/h (0 Bft) W-NW 13,7 C 16,2 C 0,0 km/h (0 Bft)
30.09.2023 01:00 15,2 C 89 % 1020,6 hPa 0,0 l/m 2,5 km/h (1 Bft) W-NW 13,4 C 15,2 C 2,5 km/h (1 Bft)
30.09.2023 02:00 15,0 C 91 % 1021,0 hPa 0,0 l/m 1,1 km/h (1 Bft) N 13,5 C 15,0 C 2,5 km/h (1 Bft)
30.09.2023 03:00 15,4 C 91 % 1020,9 hPa 0,0 l/m 0,0 km/h (0 Bft) N 13,9 C 15,4 C 0,0 km/h (0 Bft)
30.09.2023 04:00 15,2 C 92 % 1020,8 hPa 0,0 l/m 0,0 km/h (0 Bft) N 13,9 C 15,2 C 0,0 km/h (0 Bft)
30.09.2023 05:00 14,5 C 94 % 1020,9 hPa 0,0 l/m 0,0 km/h (0 Bft) W-NW 13,5 C 14,5 C 0,0 km/h (0 Bft)
30.09.2023 06:00 13,7 C 96 % 1021,0 hPa 0,0 l/m 2,5 km/h (1 Bft) N 13,1 C 13,7 C 3,6 km/h (1 Bft)
30.09.2023 07:00 13,1 C 97 % 1020,8 hPa 0,0 l/m 0,0 km/h (0 Bft) N 12,6 C 13,1 C 0,0 km/h (0 Bft)
30.09.2023 08:00 12,9 C 97 % 1021,1 hPa 0,0 l/m 0,0 km/h (0 Bft) N 12,4 C 12,9 C 0,0 km/h (0 Bft)
30.09.2023 09:00 13,0 C 97 % 1021,7 hPa 0,0 l/m 0,0 km/h (0 Bft) N 12,5 C 13,0 C 0,0 km/h (0 Bft)
30.09.2023 10:00 14,6 C 94 % 1021,9 hPa 0,0 l/m 0,0 km/h (0 Bft) NW 13,6 C 14,6 C 0,0 km/h (0 Bft)
30.09.2023 11:00 16,6 C 87 % 1021,9 hPa 0,0 l/m 1,1 km/h (1 Bft) NW 14,4 C 16,6 C 2,5 km/h (1 Bft)
30.09.2023 12:00 18,2 C 83 % 1009,3 hPa 0,0 l/m 2,5 km/h (1 Bft) W 15,3 C 18,2 C 3,6 km/h (1 Bft)
30.09.2023 13:00 20,8 C 72 % 1021,5 hPa 0,0 l/m 2,5 km/h (1 Bft) W 15,6 C 20,8 C 6,1 km/h (2 Bft)
30.09.2023 14:00 22,4 C 61 % 1021,1 hPa 0,0 l/m 2,5 km/h (1 Bft) W 14,5 C 22,4 C 6,1 km/h (2 Bft)
30.09.2023 15:00 22,5 C 54 % 1020,8 hPa 0,0 l/m 2,5 km/h (1 Bft) NW 12,7 C 22,5 C 3,6 km/h (1 Bft)
30.09.2023 16:00 22,6 C 55 % 1020,7 hPa 0,0 l/m 3,6 km/h (1 Bft) N-NW 13,1 C 22,6 C 7,2 km/h (2 Bft)
30.09.2023 17:00 22,9 C 55 % 1007,8 hPa 0,0 l/m 1,1 km/h (1 Bft) N-NW 13,4 C 22,9 C 2,5 km/h (1 Bft)
30.09.2023 18:00 21,8 C 57 % 1020,4 hPa 0,0 l/m 1,1 km/h (1 Bft) N 12,9 C 21,8 C 3,6 km/h (1 Bft)
30.09.2023 19:00 19,9 C 68 % 1020,6 hPa 0,0 l/m 0,0 km/h (0 Bft) N 13,8 C 19,9 C 2,5 km/h (1 Bft)
30.09.2023 20:00 16,8 C 79 % 1020,8 hPa 0,0 l/m 0,0 km/h (0 Bft) N 13,1 C 16,8 C 0,0 km/h (0 Bft)
30.09.2023 21:00 15,0 C 86 % 1020,9 hPa 0,0 l/m 0,0 km/h (0 Bft) N 12,7 C 15,0 C 0,0 km/h (0 Bft)
30.09.2023 22:00 13,9 C 89 % 1021,2 hPa 0,0 l/m 0,0 km/h (0 Bft) N 12,1 C 13,9 C 0,0 km/h (0 Bft)
30.09.2023 23:00 13,1 C 92 % 1021,5 hPa 0,0 l/m 0,0 km/h (0 Bft) N 11,8 C 13,1 C 0,0 km/h (0 Bft)
01.10.2023 01:00 12,1 C 94 % 1021,7 hPa 0,0 l/m 2,5 km/h (1 Bft) N 11,2 C 12,1 C 7,2 km/h (2 Bft)
01.10.2023 02:00 11,9 C 93 % 1021,7 hPa 0,0 l/m 0,0 km/h (0 Bft) N 10,8 C 11,9 C 0,0 km/h (0 Bft)
01.10.2023 03:00 11,3 C 94 % 1022,1 hPa 0,0 l/m 0,0 km/h (0 Bft) N 10,4 C 11,3 C 2,5 km/h (1 Bft)
01.10.2023 04:00 11,0 C 95 % 1021,5 hPa 0,0 l/m 0,0 km/h (0 Bft) N 10,2 C 11,0 C 2,5 km/h (1 Bft)
01.10.2023 05:00 10,8 C 95 % 1021,4 hPa 0,0 l/m 0,0 km/h (0 Bft) N 10,0 C 10,8 C 2,5 km/h (1 Bft)
01.10.2023 06:00 9,8 C 96 % 1021,3 hPa 0,0 l/m 0,0 km/h (0 Bft) N 9,2 C 9,8 C 0,0 km/h (0 Bft)
01.10.2023 07:00 9,7 C 96 % 1021,4 hPa 0,0 l/m 0,0 km/h (0 Bft) SO 9,1 C 9,7 C 0,0 km/h (0 Bft)
01.10.2023 08:00 9,8 C 97 % 1021,4 hPa 0,0 l/m 2,5 km/h (1 Bft) N 9,3 C 9,8 C 6,1 km/h (2 Bft)
01.10.2023 09:00 9,9 C 97 % 1021,7 hPa 0,0 l/m 0,0 km/h (0 Bft) N 9,4 C 9,9 C 2,5 km/h (1 Bft)
01.10.2023 10:00 14,5 C 84 % 1021,7 hPa 0,0 l/m 0,0 km/h (0 Bft) SO 11,8 C 14,5 C 2,5 km/h (1 Bft)
01.10.2023 11:00 17,6 C 75 % 1022,0 hPa 0,0 l/m 1,1 km/h (1 Bft) W-NW 13,1 C 17,6 C 2,5 km/h (1 Bft)
01.10.2023 12:00 18,8 C 71 % 1021,8 hPa 0,0 l/m 2,5 km/h (1 Bft) NW 13,4 C 18,8 C 3,6 km/h (1 Bft)
01.10.2023 13:00 21,3 C 67 % 1021,2 hPa 0,0 l/m 1,1 km/h (1 Bft) W-NW 14,9 C 21,3 C 2,5 km/h (1 Bft)
01.10.2023 14:00 22,9 C 65 % 1020,7 hPa 0,0 l/m 3,6 km/h (1 Bft) W-NW 16,0 C 22,9 C 6,1 km/h (2 Bft)
01.10.2023 15:00 23,8 C 61 % 1019,8 hPa 0,0 l/m 5,0 km/h (1 Bft) N-NW 15,8 C 23,8 C 9,7 km/h (2 Bft)
01.10.2023 16:00 25,6 C 55 % 1019,5 hPa 0,0 l/m 1,1 km/h (1 Bft) W-SW 15,9 C 25,6 C 2,5 km/h (1 Bft)
01.10.2023 17:00 25,9 C 55 % 1019,2 hPa 0,0 l/m 1,1 km/h (1 Bft) W-NW 16,2 C 25,9 C 3,6 km/h (1 Bft)
01.10.2023 18:00 26,1 C 54 % 1018,9 hPa 0,0 l/m 1,1 km/h (1 Bft) W-NW 16,0 C 26,1 C 2,5 km/h (1 Bft)
01.10.2023 19:00 23,7 C 61 % 1018,6 hPa 0,0 l/m 2,5 km/h (1 Bft) W-NW 15,7 C 23,7 C 3,6 km/h (1 Bft)
01.10.2023 20:00 19,2 C 80 % 1018,9 hPa 0,0 l/m 1,1 km/h (1 Bft) W-NW 15,7 C 19,2 C 2,5 km/h (1 Bft)
01.10.2023 21:00 17,1 C 87 % 1019,2 hPa 0,0 l/m 1,1 km/h (1 Bft) N 14,9 C 17,1 C 3,6 km/h (1 Bft)
01.10.2023 22:00 16,3 C 91 % 1019,6 hPa 0,0 l/m 0,0 km/h (0 Bft) N 14,8 C 16,3 C 2,5 km/h (1 Bft)
01.10.2023 23:00 15,6 C 93 % 1019,5 hPa 0,0 l/m 0,0 km/h (0 Bft) N 14,5 C 15,6 C 0,0 km/h (0 Bft)
Min-Datum _ 25.09.23 28.09.23 29.09.23 - 25.09.23 - 25.09.23 25.09.23 25.09.23
_ Min-Zeit 08:21 17:21 22:21 - 00:21 - 08:21 08:21 06:21
Minimum _ 6,6 C 44 % 1006,9 hPa - 0,0 km/h (0 Bft) - 6,0 C 6,6 C 0,0 km/h (0 Bft)
Max-Datum _ 28.09.23 26.09.23 01.10.23 25.09.23 29.09.23 - 29.09.23 28.09.23 29.09.23
_ Max-Zeit 17:21 09:21 03:21 00:21 16:21 - 15:21 17:21 16:21
Maximum _ 28,3 C 99 % 1022,1 hPa 0,0 l/m 15,8 km/h
W (3 Bft)
- 17,6 C 28,3 C 22,0 km/h
W (4 Bft)
Durchschnitt _ 16,7 C 79 % 1017,1 hPa #0,0 l/m 1,5 km/h (1 Bft) W-NW 12,5 C 16,7 C 3,0 km/h (1 Bft)
www.sexauwetter.de